Time;durP1;ratioP1;P1;durP2;ratioP2;P2;SDS_P1;SDS_P2;PMS_P1;PMS_P2;Temp;Humidity;BMP_temperature;BMP_pressure;BME280_temperature;BME280_humidity;BME280_pressure;Samples;Min_cycle;Max_cycle;Signal;HPM_P1;HPM_P2
2022/03/10 00:00:29;;;;;;;8.63;3.90;;;;;;;-12.23;49.69;101633.66;5033841;28;20117;-77
2022/03/10 00:02:56;;;;;;;7.28;3.72;;;;;;;-12.22;49.34;101637.06;5033789;28;20147;-78
2022/03/10 00:05:23;;;;;;;6.72;3.42;;;;;;;-12.22;49.73;101643.00;5033648;28;20053;-78
2022/03/10 00:07:49;;;;;;;10.45;3.97;;;;;;;-12.31;49.82;101631.81;5033409;28;20057;-80
2022/03/10 00:10:16;;;;;;;10.07;4.07;;;;;;;-12.22;49.98;101630.38;5033556;28;20049;-79
2022/03/10 00:12:53;;;;;;;9.45;3.25;;;;;;;-12.22;50.03;101642.09;5033486;28;20057;-79
2022/03/10 00:15:23;;;;;;;6.40;3.30;;;;;;;-12.30;49.54;101622.63;5033903;28;20054;-79
2022/03/10 00:17:51;;;;;;;9.15;3.72;;;;;;;-12.42;49.72;101601.91;5033722;28;20501;-79
2022/03/10 00:20:18;;;;;;;7.20;3.30;;;;;;;-12.34;49.77;101635.56;5033607;28;20053;-79
2022/03/10 00:22:51;;;;;;;10.20;3.20;;;;;;;-12.31;49.77;101644.41;5033426;28;20077;-79
2022/03/10 00:25:19;;;;;;;7.18;3.10;;;;;;;-12.42;50.27;101634.63;5033994;28;20057;-79
2022/03/10 00:27:46;;;;;;;7.45;3.20;;;;;;;-12.44;50.27;101649.56;5034317;28;20060;-78
2022/03/10 00:30:14;;;;;;;9.38;3.30;;;;;;;-12.47;49.73;101656.75;5033891;28;20077;-78
2022/03/10 00:32:45;;;;;;;7.32;3.42;;;;;;;-12.60;50.20;101635.81;5033397;28;20542;-78
2022/03/10 00:35:23;;;;;;;8.85;3.50;;;;;;;-12.53;49.60;101658.50;5034025;28;20069;-79
2022/03/10 00:37:57;;;;;;;8.50;3.85;;;;;;;-12.56;50.10;101653.06;5033938;28;20136;-78
2022/03/10 00:40:25;;;;;;;7.78;3.30;;;;;;;-12.59;50.15;101646.06;5032491;28;20083;-78
2022/03/10 00:42:52;;;;;;;6.85;3.28;;;;;;;-12.70;50.00;101632.88;5033715;28;20064;-79
2022/03/10 00:45:19;;;;;;;9.00;3.55;;;;;;;-12.55;50.36;101654.00;5033604;28;20080;-78
2022/03/10 00:47:46;;;;;;;5.15;2.85;;;;;;;-12.53;50.11;101660.13;5033337;28;20084;-78
2022/03/10 00:50:14;;;;;;;7.35;3.63;;;;;;;-12.76;50.30;101611.97;5047676;28;20049;-79
2022/03/10 00:52:43;;;;;;;6.47;3.20;;;;;;;-12.62;50.32;101652.34;5053410;28;20052;-78
2022/03/10 00:55:11;;;;;;;7.97;3.65;;;;;;;-12.61;50.12;101669.25;5053776;28;20532;-79
2022/03/10 00:57:39;;;;;;;10.60;4.13;;;;;;;-12.68;50.25;101659.16;5053967;28;20053;-78
2022/03/10 01:00:09;;;;;;;10.32;4.05;;;;;;;-12.57;50.42;101669.81;5053796;28;20053;-77
2022/03/10 01:02:37;;;;;;;14.55;4.18;;;;;;;-12.54;50.51;101664.25;5063456;28;20136;-79
2022/03/10 01:05:05;;;;;;;11.13;4.03;;;;;;;-12.58;50.14;101674.69;5064031;28;20144;-79
2022/03/10 01:07:33;;;;;;;11.57;3.55;;;;;;;-12.55;50.46;101676.66;5067164;28;20057;-79
2022/03/10 01:10:01;;;;;;;6.35;3.00;;;;;;;-12.62;50.17;101692.63;5056301;28;20114;-79
2022/03/10 01:12:29;;;;;;;5.32;3.10;;;;;;;-12.94;50.37;101635.78;5053324;28;20088;-79
2022/03/10 01:14:56;;;;;;;6.53;3.30;;;;;;;-12.89;50.36;101662.41;5053204;28;20089;-79
2022/03/10 01:17:23;;;;;;;9.02;4.00;;;;;;;-12.86;50.45;101670.34;5053378;28;20057;-79
2022/03/10 01:19:50;;;;;;;8.88;3.50;;;;;;;-12.78;50.63;101678.13;5052743;28;20060;-79
2022/03/10 01:22:17;;;;;;;8.32;3.53;;;;;;;-12.74;50.34;101686.06;5055909;28;20049;-78
2022/03/10 01:24:44;;;;;;;12.73;3.88;;;;;;;-12.72;50.34;101689.69;5057313;28;20053;-79
2022/03/10 01:27:11;;;;;;;8.35;3.22;;;;;;;-12.74;50.88;101683.56;5054665;28;20087;-79
2022/03/10 01:29:38;;;;;;;7.60;3.53;;;;;;;-12.75;50.17;101690.22;5061293;28;20057;-79
2022/03/10 01:32:05;;;;;;;10.90;3.60;;;;;;;-12.81;50.15;101697.00;5054458;28;20080;-80
2022/03/10 01:34:34;;;;;;;7.75;3.85;;;;;;;-13.11;51.25;101687.41;5050093;28;20061;-80
2022/03/10 01:37:01;;;;;;;6.80;3.67;;;;;;;-13.12;51.20;101699.78;5047715;28;20079;-79
2022/03/10 01:39:27;;;;;;;8.05;3.25;;;;;;;-13.14;50.82;101696.19;5044309;28;20050;-79
2022/03/10 01:41:54;;;;;;;8.18;3.42;;;;;;;-13.21;51.33;101709.59;5036293;28;20103;-79
2022/03/10 01:44:22;;;;;;;7.90;3.03;;;;;;;-13.24;51.37;101695.03;5036546;28;20140;-77
2022/03/10 01:46:49;;;;;;;7.63;3.40;;;;;;;-13.34;51.48;101714.72;5036201;28;20075;-79
2022/03/10 01:49:16;;;;;;;14.15;3.90;;;;;;;-13.43;51.63;101706.91;5036293;28;20099;-78
2022/03/10 01:51:43;;;;;;;8.70;3.10;;;;;;;-13.49;52.06;101710.25;5036178;28;20095;-79
2022/03/10 01:54:10;;;;;;;5.43;2.83;;;;;;;-13.72;51.86;101677.16;5036133;28;20053;-79
2022/03/10 01:56:38;;;;;;;7.47;3.30;;;;;;;-13.53;51.37;101718.13;5035833;28;20485;-79
2022/03/10 01:59:06;;;;;;;6.50;4.03;;;;;;;-13.53;51.43;101705.56;5036571;28;20049;-79
2022/03/10 02:01:34;;;;;;;9.20;4.40;;;;;;;-13.54;51.72;101716.34;5036123;28;20053;-79
2022/03/10 02:04:02;;;;;;;7.40;3.47;;;;;;;-13.45;51.73;101730.97;5035717;28;20050;-80
2022/03/10 02:06:29;;;;;;;8.93;3.60;;;;;;;-13.43;51.52;101737.09;5036256;28;20288;-79
2022/03/10 02:11:42;;;;;;;12.48;4.25;;;;;;;-13.63;51.78;101678.34;5036042;28;20081;-80
2022/03/10 02:19:43;;;;;;;7.55;3.55;;;;;;;-13.53;51.33;101729.06;5036261;28;20061;-79
2022/03/10 02:22:14;;;;;;;;;;;;;;;-13.66;51.44;101716.53;5036762;28;20107;-78
2022/03/10 02:24:43;;;;;;;7.07;2.90;;;;;;;-13.65;51.81;101733.44;5036049;28;20020;-79
2022/03/10 02:27:26;;;;;;;9.90;3.60;;;;;;;-13.63;52.21;101716.06;5036001;28;20049;-78
2022/03/10 02:30:01;;;;;;;6.28;3.55;;;;;;;-13.77;51.65;101715.88;5035876;28;20064;-79
2022/03/10 02:32:29;;;;;;;10.13;3.60;;;;;;;-13.65;51.51;101737.59;5035884;28;20056;-79
2022/03/10 02:34:56;;;;;;;7.20;3.50;;;;;;;-13.59;51.89;101739.97;5035671;28;20084;-79
2022/03/10 02:37:23;;;;;;;5.07;3.67;;;;;;;-13.59;51.60;101743.41;5036083;28;20149;-78
2022/03/10 02:39:50;;;;;;;12.85;3.35;;;;;;;-13.67;52.01;101761.63;5035308;28;20049;-78
2022/03/10 02:42:19;;;;;;;7.18;3.25;;;;;;;-13.59;51.73;101755.03;5035861;28;20149;-79
2022/03/10 02:44:47;;;;;;;8.65;3.40;;;;;;;-13.52;52.44;101753.53;5036120;28;20080;-79
2022/03/10 02:47:17;;;;;;;5.53;3.10;;;;;;;-13.55;51.75;101760.66;5035460;28;20068;-78
2022/03/10 02:49:44;;;;;;;9.20;3.33;;;;;;;-13.62;51.89;101753.03;5035149;28;20085;-79
2022/03/10 02:52:11;;;;;;;6.38;3.30;;;;;;;-13.63;52.09;101768.84;5034946;28;20076;-78
2022/03/10 02:54:44;;;;;;;6.30;3.25;;;;;;;-13.70;51.61;101753.66;5034807;28;20148;-78
2022/03/10 02:57:13;;;;;;;11.02;4.15;;;;;;;-13.70;51.52;101768.75;5034933;28;20085;-78
2022/03/10 02:59:40;;;;;;;7.00;3.70;;;;;;;-13.71;52.45;101762.81;5045247;28;20130;-78
2022/03/10 03:02:07;;;;;;;4.93;3.13;;;;;;;-13.80;51.97;101763.25;5054887;28;20049;-79
2022/03/10 03:04:35;;;;;;;7.05;3.17;;;;;;;-13.75;52.16;101767.25;5054870;28;20504;-79
2022/03/10 03:07:03;;;;;;;10.93;3.58;;;;;;;-14.00;52.26;101725.47;5054748;28;20157;-79
2022/03/10 03:09:30;;;;;;;9.32;3.90;;;;;;;-13.82;51.80;101758.03;5055241;28;20052;-79
2022/03/10 03:11:57;;;;;;;13.40;4.28;;;;;;;-13.80;52.27;101773.31;5054521;28;20529;-79
2022/03/10 03:14:24;;;;;;;11.27;3.85;;;;;;;-13.88;52.16;101770.69;5054189;28;20084;-79
2022/03/10 03:16:52;;;;;;;8.20;3.10;;;;;;;-14.00;52.32;101750.59;5054094;28;20057;-79
2022/03/10 03:19:19;;;;;;;10.07;3.83;;;;;;;-13.98;52.25;101791.91;5053849;28;20420;-78
2022/03/10 03:21:46;;;;;;;10.80;3.95;;;;;;;-13.99;52.46;101758.34;5054303;28;20059;-80
2022/03/10 03:24:13;;;;;;;10.32;3.90;;;;;;;-13.98;52.37;101761.75;5054189;28;20080;-78
2022/03/10 03:26:41;;;;;;;8.55;3.38;;;;;;;-13.99;52.24;101753.31;5054004;28;20055;-79
2022/03/10 03:29:09;;;;;;;11.25;4.43;;;;;;;-13.98;52.11;101760.13;5054392;28;20061;-79
2022/03/10 03:31:36;;;;;;;11.68;4.07;;;;;;;-13.94;52.09;101774.91;5038092;28;20049;-78
2022/03/10 03:34:10;;;;;;;11.23;3.53;;;;;;;-13.94;52.18;101786.56;5039738;28;20453;-79
2022/03/10 03:36:39;;;;;;;6.45;3.50;;;;;;;-13.93;52.38;101781.75;5054275;28;20056;-79
2022/03/10 03:39:06;;;;;;;7.43;3.60;;;;;;;-13.89;52.43;101790.59;5055346;28;20061;-79
2022/03/10 03:41:33;;;;;;;10.57;3.40;;;;;;;-14.06;52.30;101768.31;5035979;28;20088;-79
2022/03/10 03:44:00;;;;;;;7.00;3.17;;;;;;;-14.07;52.10;101786.56;5034460;28;20084;-79
2022/03/10 03:46:28;;;;;;;8.55;3.35;;;;;;;-14.11;52.28;101791.91;5035885;28;20099;-79
2022/03/10 03:48:55;;;;;;;9.57;3.35;;;;;;;-14.13;52.09;101794.25;5033756;28;20057;-78
2022/03/10 03:51:22;;;;;;;9.40;4.07;;;;;;;-14.07;52.59;101792.50;5033877;28;20076;-78
2022/03/10 03:53:50;;;;;;;8.23;3.40;;;;;;;-14.07;52.13;101802.53;5033659;28;20053;-79
2022/03/10 03:56:17;;;;;;;8.77;3.67;;;;;;;-14.06;51.92;101803.47;5033642;28;20103;-78
2022/03/10 03:58:44;;;;;;;8.63;2.92;;;;;;;-14.25;52.02;101760.88;5033803;28;20524;-79
2022/03/10 04:01:12;;;;;;;6.75;3.35;;;;;;;-14.38;52.73;101756.56;5033996;28;20059;-79
2022/03/10 04:03:39;;;;;;;8.15;3.58;;;;;;;-14.26;52.09;101785.75;5033849;28;20136;-79
2022/03/10 04:06:06;;;;;;;9.95;3.45;;;;;;;-14.10;52.16;101813.81;5033401;28;20081;-80
2022/03/10 04:08:34;;;;;;;8.43;3.22;;;;;;;-14.12;52.25;101805.19;5033272;28;20095;-79
2022/03/10 04:11:01;;;;;;;9.55;3.90;;;;;;;-14.25;52.68;101783.47;5033269;28;20045;-78
2022/03/10 04:13:28;;;;;;;9.15;3.72;;;;;;;-14.02;52.20;101830.81;5033206;28;20085;-79
2022/03/10 04:15:55;;;;;;;5.85;3.53;;;;;;;-13.95;52.12;101828.38;5032951;28;20062;-78
2022/03/10 04:18:22;;;;;;;4.68;2.90;;;;;;;-13.86;51.89;101829.56;5033505;28;20057;-81
2022/03/10 04:20:49;;;;;;;12.50;3.55;;;;;;;-13.88;52.01;101825.97;5031786;28;20107;-81
2022/03/10 04:23:18;;;;;;;9.07;3.35;;;;;;;-13.73;51.51;101839.63;5043721;28;20048;-80
2022/03/10 04:25:45;;;;;;;8.80;3.42;;;;;;;-13.68;52.12;101835.19;5052968;28;20497;-80
2022/03/10 04:28:12;;;;;;;10.32;3.42;;;;;;;-13.64;51.50;101832.38;5053037;28;20075;-78
2022/03/10 04:30:44;;;;;;;8.75;3.67;;;;;;;-13.66;51.80;101824.63;5052815;28;20143;-80
2022/03/10 04:33:12;;;;;;;8.52;3.30;;;;;;;-13.50;51.19;101840.09;5053098;28;20111;-80
2022/03/10 04:35:39;;;;;;;8.20;3.83;;;;;;;-13.44;51.80;101833.34;5053260;28;20083;-79
2022/03/10 04:38:06;;;;;;;6.95;3.60;;;;;;;-13.33;51.13;101831.31;5053108;28;20046;-79
2022/03/10 04:40:34;;;;;;;8.23;3.70;;;;;;;-13.25;51.41;101845.72;5053441;28;20048;-77
2022/03/10 04:43:00;;;;;;;10.00;3.58;;;;;;;-13.16;51.05;101840.97;5053639;28;20056;-78
2022/03/10 04:45:28;;;;;;;9.75;3.58;;;;;;;-13.20;50.51;101850.66;5050345;28;20403;-78
2022/03/10 04:47:55;;;;;;;5.85;3.15;;;;;;;-13.25;51.17;101830.66;5053316;28;20048;-79
2022/03/10 04:50:21;;;;;;;6.38;2.72;;;;;;;-13.23;51.35;101852.75;5065683;28;20057;-79
2022/03/10 04:52:49;;;;;;;8.48;3.38;;;;;;;-13.15;51.35;101851.25;5054336;28;20053;-77
2022/03/10 04:55:16;;;;;;;7.85;3.42;;;;;;;-12.95;50.41;101856.31;5053673;28;20053;-81
2022/03/10 04:57:47;;;;;;;11.48;3.20;;;;;;;-12.81;50.29;101858.09;5054251;28;20502;-81
2022/03/10 05:00:18;;;;;;;6.65;3.08;;;;;;;-12.69;49.90;101847.06;5032541;28;20420;-78
2022/03/10 05:02:47;;;;;;;10.77;2.92;;;;;;;-12.46;49.34;101839.88;5032737;28;20053;-79
2022/03/10 05:05:15;;;;;;;6.28;2.75;;;;;;;-12.30;49.64;101829.19;5032420;28;20136;-79
2022/03/10 05:07:42;;;;;;;8.02;3.38;;;;;;;-12.02;49.14;101841.06;5032909;28;20057;-79
2022/03/10 05:10:11;;;;;;;10.68;3.33;;;;;;;-11.89;48.69;101854.50;5032600;28;20054;-80
2022/03/10 05:12:49;;;;;;;10.35;3.00;;;;;;;-11.56;48.69;101860.22;5032728;28;20497;-79
2022/03/10 05:15:21;;;;;;;9.45;3.67;;;;;;;-11.41;48.19;101871.28;5032878;28;20049;-80
2022/03/10 05:17:49;;;;;;;10.52;3.42;;;;;;;-11.31;47.90;101869.88;5032371;28;20065;-81
2022/03/10 05:20:16;;;;;;;11.30;3.20;;;;;;;-11.24;47.87;101844.69;5032609;28;20065;-79
2022/03/10 05:22:46;;;;;;;7.78;3.20;;;;;;;-10.93;47.27;101872.88;5035573;28;20058;-81
2022/03/10 05:25:15;;;;;;;6.35;2.55;;;;;;;-11.26;47.00;101843.59;5037890;28;20148;-80
2022/03/10 05:27:43;;;;;;;9.57;3.45;;;;;;;-11.17;47.34;101863.25;5036954;28;20060;-81
2022/03/10 05:30:11;;;;;;;8.57;2.85;;;;;;;-10.99;47.18;101876.28;5032196;28;20077;-80
2022/03/10 05:32:39;;;;;;;7.80;3.28;;;;;;;-11.06;46.58;101874.66;5030439;28;20048;-79
2022/03/10 05:35:08;;;;;;;7.82;3.15;;;;;;;-10.85;46.59;101885.53;5048478;28;20131;-80
2022/03/10 05:37:37;;;;;;;6.57;2.87;;;;;;;-10.72;46.43;101887.19;5051749;28;20556;-79
2022/03/10 05:40:06;;;;;;;5.47;3.00;;;;;;;-10.51;46.29;101887.94;5051386;28;20690;-80
2022/03/10 05:42:32;;;;;;;6.00;2.85;;;;;;;-10.25;45.85;101891.00;5052293;28;20057;-80
2022/03/10 05:45:00;;;;;;;8.25;3.25;;;;;;;-10.25;45.72;101892.63;5055890;28;20045;-79
2022/03/10 05:47:26;;;;;;;7.43;3.03;;;;;;;-10.42;46.02;101847.72;5052201;28;20045;-80
2022/03/10 05:49:53;;;;;;;7.28;3.33;;;;;;;-10.37;45.67;101885.41;5051708;28;20080;-80
2022/03/10 05:52:21;;;;;;;7.45;3.53;;;;;;;-10.31;46.05;101878.56;5051867;28;20060;-79
2022/03/10 05:54:50;;;;;;;6.68;2.50;;;;;;;-10.29;45.76;101893.03;5051709;28;20055;-80
2022/03/10 05:57:17;;;;;;;13.05;4.10;;;;;;;-10.24;45.96;101891.88;5052158;28;20099;-78
2022/03/10 05:59:46;;;;;;;5.85;3.05;;;;;;;-10.23;44.85;101859.22;5051304;28;20504;-80
2022/03/10 06:02:15;;;;;;;8.23;2.97;;;;;;;-9.80;44.75;101887.00;5053810;28;20059;-79
2022/03/10 06:04:43;;;;;;;7.10;3.13;;;;;;;-9.77;44.57;101873.78;5052199;28;20061;-80
2022/03/10 06:07:10;;;;;;;4.85;2.55;;;;;;;-9.80;44.46;101884.47;5052400;28;20341;-79
2022/03/10 06:09:37;;;;;;;7.53;3.38;;;;;;;-9.74;44.70;101890.22;5055371;28;20143;-80
2022/03/10 06:12:05;;;;;;;7.78;3.20;;;;;;;-9.65;43.96;101902.16;5055258;28;20048;-81
2022/03/10 06:14:32;;;;;;;6.63;3.28;;;;;;;-9.86;43.88;101872.72;5055669;28;20053;-78
2022/03/10 06:16:59;;;;;;;11.27;3.13;;;;;;;-9.72;44.03;101870.16;5054430;28;20151;-82
2022/03/10 06:19:25;;;;;;;5.70;2.97;;;;;;;-9.51;43.80;101917.28;5056263;28;20132;-80
2022/03/10 06:21:52;;;;;;;8.52;3.00;;;;;;;-9.41;43.80;101916.72;5054122;28;20067;-78
2022/03/10 06:24:19;;;;;;;4.65;2.38;;;;;;;-9.52;43.09;101913.84;5055784;28;20508;-79
2022/03/10 06:26:46;;;;;;;7.97;3.58;;;;;;;-9.36;43.57;101896.25;5055232;28;20106;-78
2022/03/10 06:29:13;;;;;;;12.15;3.50;;;;;;;-9.19;43.22;101899.84;5054725;28;20083;-78
2022/03/10 06:31:40;;;;;;;9.70;2.92;;;;;;;-9.04;42.57;101913.34;5055573;28;20044;-79
2022/03/10 06:34:10;;;;;;;8.93;3.88;;;;;;;-9.13;42.56;101903.06;5054870;28;20079;-80
2022/03/10 06:36:37;;;;;;;10.90;3.40;;;;;;;-9.16;42.40;101908.69;5055121;28;20061;-80
2022/03/10 06:39:06;;;;;;;6.25;2.80;;;;;;;-9.18;42.15;101914.31;5054952;28;20148;-80
2022/03/10 06:41:32;;;;;;;10.05;3.40;;;;;;;-9.04;42.17;101909.16;5055669;28;20059;-79
2022/03/10 06:43:59;;;;;;;9.05;3.08;;;;;;;-8.92;41.95;101910.56;5055600;28;20060;-79
2022/03/10 06:46:26;;;;;;;10.27;3.15;;;;;;;-8.88;41.54;101901.69;5055274;28;20102;-79
2022/03/10 06:48:53;;;;;;;8.02;3.53;;;;;;;-8.72;41.51;101897.59;5055029;28;20076;-79
2022/03/10 06:51:20;;;;;;;10.90;3.08;;;;;;;-8.40;41.16;101907.00;5055372;28;20052;-79
2022/03/10 06:53:47;;;;;;;7.60;3.38;;;;;;;-8.31;41.02;101908.88;5051656;28;20535;-78
2022/03/10 06:56:16;;;;;;;7.85;3.20;;;;;;;-8.36;41.04;101881.25;5055284;28;20110;-78
2022/03/10 06:58:44;;;;;;;12.77;3.53;;;;;;;-8.21;40.78;101905.75;5054689;28;20052;-79
2022/03/10 07:01:10;;;;;;;9.05;3.50;;;;;;;-8.17;40.87;101909.50;5053491;28;20060;-78
2022/03/10 07:03:38;;;;;;;8.93;3.53;;;;;;;-8.09;40.32;101908.72;5054463;28;20420;-80
2022/03/10 07:06:05;;;;;;;5.05;2.80;;;;;;;-8.06;40.15;101909.06;5054554;28;20516;-80
2022/03/10 07:08:32;;;;;;;4.43;2.30;;;;;;;-8.15;39.84;101903.88;5053991;28;20053;-80
2022/03/10 07:10:58;;;;;;;8.13;3.30;;;;;;;-8.05;40.15;101908.31;5054110;28;20051;-80
2022/03/10 07:13:25;;;;;;;12.18;3.22;;;;;;;-7.83;39.69;101916.63;5054387;28;20457;-78
2022/03/10 07:15:55;;;;;;;8.82;3.83;;;;;;;-7.72;38.97;101916.19;5054132;28;20049;-79
2022/03/10 07:18:22;;;;;;;4.05;2.42;;;;;;;-7.79;38.91;101916.25;5053413;28;20143;-78
2022/03/10 07:20:49;;;;;;;2.67;1.33;;;;;;;-7.88;39.14;101905.09;5050951;28;20056;-79
2022/03/10 07:23:15;;;;;;;6.82;3.05;;;;;;;-7.92;38.67;101908.94;5053539;28;20064;-78
2022/03/10 07:25:43;;;;;;;9.32;3.15;;;;;;;-7.82;38.68;101899.06;5053659;28;20045;-79
2022/03/10 07:28:10;;;;;;;8.57;3.10;;;;;;;-7.69;38.52;101893.66;5050518;28;20144;-79
2022/03/10 07:30:37;;;;;;;11.25;2.80;;;;;;;-7.66;38.40;101901.63;5052706;28;20071;-79
2022/03/10 07:33:04;;;;;;;2.80;1.80;;;;;;;-7.74;37.98;101897.34;5053610;28;20064;-79
2022/03/10 07:35:31;;;;;;;3.92;1.85;;;;;;;-7.77;37.39;101902.09;5053796;28;20049;-82
2022/03/10 07:37:59;;;;;;;2.95;2.08;;;;;;;-7.76;37.39;101921.66;5053811;28;20073;-80
2022/03/10 07:40:27;;;;;;;4.68;2.03;;;;;;;-7.92;37.04;101875.94;5053669;28;20467;-79
2022/03/10 07:42:54;;;;;;;3.67;1.95;;;;;;;-7.78;37.05;101917.16;5053392;28;20052;-80
2022/03/10 07:45:22;;;;;;;8.40;2.17;;;;;;;-7.83;36.62;101909.03;5051735;28;20075;-79
2022/03/10 07:47:52;;;;;;;2.08;1.77;;;;;;;-7.80;36.61;101924.59;5051180;28;20053;-79
2022/03/10 07:50:19;;;;;;;7.97;2.60;;;;;;;-7.77;37.20;101914.78;5053126;28;20049;-79
2022/03/10 07:52:46;;;;;;;4.25;2.25;;;;;;;-7.89;36.78;101890.63;5053000;28;20424;-79
2022/03/10 07:55:13;;;;;;;5.72;1.92;;;;;;;-7.81;37.04;101907.56;5052809;28;20063;-79
2022/03/10 07:57:41;;;;;;;4.40;2.70;;;;;;;-7.61;37.14;101912.28;5052540;28;20475;-79
2022/03/10 08:00:09;;;;;;;2.92;1.80;;;;;;;-7.55;37.12;101907.88;5052794;28;20508;-79
2022/03/10 08:02:37;;;;;;;6.88;2.78;;;;;;;-7.65;37.20;101902.53;5053424;28;20072;-79
2022/03/10 08:05:06;;;;;;;;;;;;;;;-7.59;37.07;101905.72;5051838;28;20080;-78
2022/03/10 08:07:34;;;;;;;3.72;1.80;;;;;;;-7.56;36.76;101922.94;5051380;28;19948;-78
2022/03/10 08:10:04;;;;;;;6.55;1.95;;;;;;;-7.64;36.83;101906.84;5051333;28;20504;-79
2022/03/10 08:12:32;;;;;;;4.45;2.15;;;;;;;-7.87;36.72;101851.09;5045452;28;20858;-79
2022/03/10 08:15:01;;;;;;;6.53;2.10;;;;;;;-7.51;36.55;101897.28;5051188;28;20202;-79
2022/03/10 08:17:29;;;;;;;4.95;2.05;;;;;;;-7.51;36.50;101906.53;5051041;28;20114;-79
2022/03/10 08:19:57;;;;;;;4.15;2.25;;;;;;;-7.60;36.99;101862.41;5051932;28;20066;-79
2022/03/10 08:22:26;;;;;;;8.82;2.45;;;;;;;-7.46;36.48;101862.25;5053555;28;20099;-78
2022/03/10 08:24:54;;;;;;;7.15;2.53;;;;;;;-7.07;36.66;101892.63;5051933;28;20059;-79
2022/03/10 08:27:21;;;;;;;4.32;1.98;;;;;;;-6.96;36.23;101894.66;5052540;28;20075;-79
2022/03/10 08:29:48;;;;;;;4.32;2.35;;;;;;;-6.94;36.30;101880.47;5052552;28;20045;-79
2022/03/10 08:32:16;;;;;;;4.72;2.35;;;;;;;-6.77;36.02;101899.09;5051338;28;20069;-77
2022/03/10 08:34:43;;;;;;;2.80;1.92;;;;;;;-6.77;36.17;101879.69;5050228;28;20067;-77
2022/03/10 08:37:09;;;;;;;5.18;2.47;;;;;;;-6.69;36.08;101894.13;5053166;28;20053;-79
2022/03/10 08:39:36;;;;;;;6.97;3.20;;;;;;;-6.66;35.97;101893.53;5063161;28;20057;-78
2022/03/10 08:42:04;;;;;;;3.35;2.00;;;;;;;-6.59;35.72;101888.31;5059659;28;20057;-80
2022/03/10 08:44:31;;;;;;;3.10;1.98;;;;;;;-6.60;36.20;101889.97;5061181;28;20076;-80
2022/03/10 08:46:57;;;;;;;4.60;2.08;;;;;;;-6.49;35.27;101908.88;5063630;28;20055;-79
2022/03/10 08:49:24;;;;;;;4.75;2.40;;;;;;;-6.51;35.68;101882.41;5056882;28;20094;-82
2022/03/10 08:51:51;;;;;;;5.22;2.35;;;;;;;-6.27;35.99;101873.84;5018415;28;20520;-82
2022/03/10 08:54:19;;;;;;;6.35;2.08;;;;;;;-6.17;35.14;101873.16;5052800;28;20048;-80
2022/03/10 08:56:47;;;;;;;4.10;2.35;;;;;;;-6.07;35.50;101870.78;5052649;28;20456;-79
2022/03/10 08:59:14;;;;;;;14.90;2.65;;;;;;;-6.12;34.19;101876.16;5052510;28;20068;-80
2022/03/10 09:01:41;;;;;;;5.07;2.20;;;;;;;-6.06;34.78;101892.06;5052698;28;20055;-81
2022/03/10 09:04:08;;;;;;;5.90;2.15;;;;;;;-6.07;34.29;101860.59;5052742;28;20139;-82
2022/03/10 09:06:35;;;;;;;4.00;2.10;;;;;;;-5.83;34.08;101877.44;5051244;28;20584;-81
2022/03/10 09:09:03;;;;;;;4.50;2.33;;;;;;;-5.73;34.21;101868.16;5052758;28;20114;-82
2022/03/10 09:11:30;;;;;;;6.22;2.08;;;;;;;-5.71;34.74;101874.31;5052082;28;20053;-82
2022/03/10 09:13:59;;;;;;;5.53;2.15;;;;;;;-5.67;34.74;101859.50;5060215;28;20117;-80
2022/03/10 09:16:26;;;;;;;4.35;2.22;;;;;;;-5.76;34.15;101836.56;5063075;28;20060;-81
2022/03/10 09:18:54;;;;;;;5.45;2.00;;;;;;;-5.58;34.32;101854.41;5061788;28;20077;-83
2022/03/10 09:21:21;;;;;;;5.20;2.55;;;;;;;-5.48;34.46;101884.25;5045155;28;20092;-78
2022/03/10 09:23:48;;;;;;;6.07;2.20;;;;;;;-5.47;34.11;101876.75;5034779;28;20049;-81
2022/03/10 09:26:15;;;;;;;2.88;1.98;;;;;;;-5.56;33.12;101875.84;5051943;28;20052;-79
2022/03/10 09:28:43;;;;;;;3.75;1.75;;;;;;;-5.59;33.20;101873.91;5052058;28;20083;-78
2022/03/10 09:31:17;;;;;;;2.15;1.13;;;;;;;-5.63;33.11;101861.59;5050637;28;20111;-78
2022/03/10 09:33:45;;;;;;;9.52;1.83;;;;;;;-5.92;32.32;101825.59;5032186;28;20045;-80
2022/03/10 09:36:14;;;;;;;3.72;1.33;;;;;;;-5.76;32.75;101867.13;5031926;28;20059;-78
2022/03/10 09:38:41;;;;;;;2.90;1.73;;;;;;;-5.73;32.76;101870.72;5031589;28;20465;-78
2022/03/10 09:41:08;;;;;;;8.25;1.73;;;;;;;-5.64;33.25;101839.41;5034510;28;20058;-78
2022/03/10 09:43:36;;;;;;;1.75;1.20;;;;;;;-5.43;32.36;101860.13;5037504;28;20099;-77
2022/03/10 09:46:05;;;;;;;2.85;1.40;;;;;;;-5.43;32.65;101867.78;5036116;28;20057;-80
2022/03/10 09:48:36;;;;;;;3.53;1.95;;;;;;;-5.54;31.78;101870.91;5035466;28;20428;-79
2022/03/10 09:51:03;;;;;;;3.78;1.77;;;;;;;-5.47;32.26;101865.66;5035688;28;20184;-79
2022/03/10 09:53:31;;;;;;;7.65;2.75;;;;;;;-5.35;32.79;101827.03;5045109;28;20060;-77
2022/03/10 09:55:58;;;;;;;2.45;1.52;;;;;;;-5.03;32.70;101857.31;5054862;28;20055;-79
2022/03/10 09:58:25;;;;;;;5.15;2.10;;;;;;;-4.95;32.13;101875.88;5055737;28;20471;-78
2022/03/10 10:01:03;;;;;;;4.35;2.05;;;;;;;-5.01;32.02;101870.16;5055586;28;20053;-77
2022/03/10 10:03:30;;;;;;;3.17;1.65;;;;;;;-5.05;31.47;101863.00;5055596;28;20057;-79
2022/03/10 10:06:02;;;;;;;2.78;1.90;;;;;;;-5.15;32.24;101854.44;5055856;28;20055;-78
2022/03/10 10:08:34;;;;;;;4.65;1.77;;;;;;;-5.09;31.88;101854.16;5052670;28;20107;-77
2022/03/10 10:11:02;;;;;;;5.38;2.17;;;;;;;-5.02;32.08;101855.66;5054705;28;20049;-78
2022/03/10 10:13:39;;;;;;;3.90;2.10;;;;;;;-4.87;31.99;101863.88;5050410;28;20049;-76
2022/03/10 10:16:09;;;;;;;4.80;1.73;;;;;;;-4.80;32.33;101845.88;5043444;28;20075;-78
2022/03/10 10:18:38;;;;;;;2.20;1.70;;;;;;;-4.63;32.27;101850.03;5053310;28;20130;-77
2022/03/10 10:21:14;;;;;;;4.07;2.08;;;;;;;-4.68;31.88;101838.50;5054845;28;20433;-78
2022/03/10 10:23:41;;;;;;;;;;;;;;;-4.51;31.89;101848.66;5055103;28;20049;-79
2022/03/10 10:26:10;;;;;;;3.17;1.73;;;;;;;-4.54;31.41;101840.69;5054647;28;19925;-78
2022/03/10 10:28:47;;;;;;;3.55;2.00;;;;;;;-4.48;30.67;101848.94;5045630;28;20080;-78
2022/03/10 10:31:20;;;;;;;3.47;1.85;;;;;;;-4.50;31.21;101841.91;5054721;28;20069;-78
2022/03/10 10:34:03;;;;;;;3.88;2.05;;;;;;;-4.64;31.32;101821.09;5042531;28;20421;-79
2022/03/10 10:36:31;;;;;;;;;;;;;;;-4.48;31.18;101841.28;5054720;28;20045;-77
2022/03/10 10:39:17;;;;;;;4.57;2.17;;;;;;;-4.49;31.20;101838.63;5054554;28;19925;-80
2022/03/10 10:41:47;;;;;;;3.72;2.20;;;;;;;-4.38;30.94;101835.41;5053440;28;20496;-79
2022/03/10 10:44:17;;;;;;;3.30;1.80;;;;;;;-4.25;30.59;101847.69;5054666;28;20488;-78
2022/03/10 10:46:50;;;;;;;8.30;2.20;;;;;;;-4.19;31.13;101841.50;5054532;28;20052;-79
2022/03/10 10:49:19;;;;;;;2.55;1.48;;;;;;;-4.11;30.71;101837.09;5053498;28;20080;-79
2022/03/10 10:51:48;;;;;;;4.45;1.90;;;;;;;-4.18;30.42;101835.63;5053679;28;20138;-79
2022/03/10 10:54:23;;;;;;;4.00;1.73;;;;;;;-4.13;30.35;101825.84;5054133;28;20057;-78
2022/03/10 10:56:57;;;;;;;7.95;1.88;;;;;;;-4.07;30.30;101828.97;5054898;28;20057;-79
2022/03/10 10:59:38;;;;;;;2.75;1.27;;;;;;;-4.15;29.56;101828.28;5052258;28;20045;-79
2022/03/10 11:02:21;;;;;;;4.15;1.40;;;;;;;-4.22;30.16;101843.75;5054100;28;20053;-79
2022/03/10 11:04:50;;;;;;;3.75;1.92;;;;;;;-4.17;30.08;101828.88;5054104;28;20040;-79
2022/03/10 11:07:19;;;;;;;5.50;1.60;;;;;;;-4.11;30.53;101821.78;5053830;28;20053;-79
2022/03/10 11:09:48;;;;;;;3.65;1.95;;;;;;;-4.13;29.82;101821.66;5054280;28;20779;-78
2022/03/10 11:12:16;;;;;;;3.85;2.05;;;;;;;-4.09;29.83;101834.69;5054369;28;20091;-79
2022/03/10 11:14:45;;;;;;;4.32;1.98;;;;;;;-4.17;29.72;101811.91;5054347;28;20052;-78
2022/03/10 11:17:14;;;;;;;3.67;1.55;;;;;;;-4.05;30.01;101824.91;5054012;28;20563;-80
2022/03/10 11:19:44;;;;;;;2.15;1.42;;;;;;;-4.03;29.81;101823.41;5053316;28;20424;-79
2022/03/10 11:22:17;;;;;;;4.10;1.55;;;;;;;-4.01;29.31;101842.31;5046784;28;20112;-79
2022/03/10 11:25:07;;;;;;;3.38;2.05;;;;;;;-4.02;30.03;101831.94;5053219;28;20144;-81
2022/03/10 11:28:01;;;;;;;3.72;1.90;;;;;;;-3.89;29.87;101821.22;5050231;28;20083;-79
2022/03/10 11:30:30;;;;;;;5.13;2.08;;;;;;;-3.93;29.88;101817.50;5054110;28;20048;-79
2022/03/10 11:33:03;;;;;;;5.00;1.98;;;;;;;-3.58;30.00;101819.81;5054299;28;20052;-78
2022/03/10 11:35:39;;;;;;;6.63;2.33;;;;;;;-3.58;30.18;101819.81;5052913;28;20083;-78